Belvedere, Georgia
Current Conditions -  °F | °C
As of 3:53 PM on Sunday 23 Nov 2014 (Local Time) from KPDK Reporting Station
Light Rain Light Rain  
Wind Chill: 50°   Ceiling: 500
Heat Index: 50°   Visibility: 1.5mi
Dew Point: 47°   Wind: 5mph
Humidity: 89%   Direction: NA
Pressure: 29.76"   Gusts: NA
Location:  33.7391°N, 84.2645°W
Report Text: KPDK 232053Z VRB04KT 1 1/2SM -RA BR OVC005 10/08 A2976 RMK AO2 SFC VIS 1 3/4 SLP082 P0002 60040 T01000083 56047
Loading
Personal Weather Stations






























Interactive Weather Map New forecast layout! Learn more

10-Day Weather Forecast

Advertisements
Track Severe Weather on mobile